Time;durP1;ratioP1;P1;durP2;ratioP2;P2;SDS_P1;SDS_P2;PMS_P1;PMS_P2;Temp;Humidity;BMP_temperature;BMP_pressure;BME280_temperature;BME280_humidity;BME280_pressure;Samples;Min_cycle;Max_cycle;Signal;HPM_P1;HPM_P2
2022/12/06 00:01:35;;;;;;;13.55;6.60;;;5.60;99.90;;;;;;5067475;28;20379;-61
2022/12/06 00:04:04;;;;;;;13.88;6.90;;;5.70;99.90;;;;;;5068408;28;20919;-61
2022/12/06 00:06:32;;;;;;;12.60;6.07;;;5.70;1.00;;;;;;5067427;28;20406;-61
2022/12/06 00:08:58;;;;;;;14.48;7.22;;;5.70;99.90;;;;;;5068843;28;20434;-61
2022/12/06 00:11:27;;;;;;;15.70;7.43;;;5.60;99.80;;;;;;5069359;28;20383;-60
2022/12/06 00:14:04;;;;;;;14.70;6.90;;;5.50;99.90;;;;;;5068818;28;20380;-60
2022/12/06 00:16:31;;;;;;;13.00;6.25;;;5.50;99.90;;;;;;5066911;28;20470;-59
2022/12/06 00:18:57;;;;;;;12.50;6.23;;;5.50;1.00;;;;;;5068514;28;20375;-59
2022/12/06 00:21:29;;;;;;;13.55;6.70;;;5.50;1.00;;;;;;5068852;28;20433;-61
2022/12/06 00:24:00;;;;;;;11.77;6.10;;;5.50;99.90;;;;;;5068854;28;20396;-59
2022/12/06 00:26:26;;;;;;;13.40;7.13;;;5.60;99.90;;;;;;5069653;28;20497;-59
2022/12/06 00:28:54;;;;;;;12.90;5.93;;;5.50;1.00;;;;;;5050524;28;20398;-59
2022/12/06 00:31:21;;;;;;;13.00;6.18;;;7.30;18.20;;;;;;5069341;28;20475;-59
2022/12/06 00:33:47;;;;;;;12.73;5.88;;;5.50;1.00;;;;;;5065289;28;20534;-60
2022/12/06 00:36:18;;;;;;;12.98;6.70;;;5.40;94.30;;;;;;5069147;28;20863;-59
2022/12/06 00:38:45;;;;;;;13.38;6.10;;;6.50;36.80;;;;;;5068540;28;20883;-63
2022/12/06 00:41:15;;;;;;;13.23;6.60;;;6.90;99.90;;;;;;5069133;28;20379;-60
2022/12/06 00:43:41;;;;;;;11.15;5.93;;;5.40;99.90;;;;;;5069402;28;20403;-61
2022/12/06 00:46:09;;;;;;;15.40;6.60;;;5.40;99.90;;;;;;5065635;28;20384;-61
2022/12/06 00:48:35;;;;;;;12.23;5.65;;;5.30;1.00;;;;;;5069221;28;20383;-58
2022/12/06 00:51:01;;;;;;;12.88;6.47;;;5.10;40.60;;;;;;5068154;28;20380;-59
2022/12/06 00:53:27;;;;;;;13.90;6.30;;;5.00;1.00;;;;;;5066904;28;20440;-60
2022/12/06 00:55:54;;;;;;;12.77;6.20;;;6.10;99.90;;;;;;5071831;28;20508;-60
2022/12/06 00:58:20;;;;;;;14.90;7.07;;;5.10;1.00;;;;;;5072730;28;20388;-60
2022/12/06 01:00:46;;;;;;;14.95;6.38;;;4.90;1.00;;;;;;5071874;28;20376;-64
2022/12/06 01:03:12;;;;;;;13.85;6.63;;;4.90;1.00;;;;;;5072540;28;20876;-59
2022/12/06 01:05:43;;;;;;;20.35;7.53;;;5.00;1.00;;;;;;5072893;28;20497;-59
2022/12/06 01:08:09;;;;;;;15.35;6.85;;;4.70;99.90;;;;;;5069807;28;20374;-59
2022/12/06 01:10:36;;;;;;;18.70;7.05;;;5.20;1.00;;;;;;5072636;28;20467;-59
2022/12/06 01:13:02;;;;;;;20.50;6.60;;;5.50;1.00;;;;;;5071872;28;20392;-59
2022/12/06 01:15:28;;;;;;;15.10;7.50;;;4.80;1.00;;;;;;5072384;28;20474;-59
2022/12/06 01:17:53;;;;;;;22.67;8.20;;;6.40;99.90;;;;;;5071564;28;20490;-59
2022/12/06 01:20:19;;;;;;;15.75;7.90;;;5.30;1.00;;;;;;5072414;28;20380;-59
2022/12/06 01:22:44;;;;;;;20.73;7.83;;;5.30;1.00;;;;;;5071232;28;20955;-60
2022/12/06 01:25:10;;;;;;;16.33;7.80;;;6.10;1.00;;;;;;5072551;28;20865;-59
2022/12/06 01:27:36;;;;;;;18.17;7.73;;;5.00;1.00;;;;;;5071945;28;20426;-59
2022/12/06 01:30:02;;;;;;;13.15;6.70;;;5.10;1.00;;;;;;5072044;28;21086;-60
2022/12/06 01:32:29;;;;;;;13.60;6.18;;;5.10;99.90;;;;;;5069500;28;20399;-60
2022/12/06 01:34:54;;;;;;;11.65;5.72;;;6.90;99.90;;;;;;5071714;28;20797;-59
2022/12/06 01:37:20;;;;;;;11.03;5.80;;;5.10;99.90;;;;;;5054286;28;20424;-59
2022/12/06 01:39:46;;;;;;;11.63;5.97;;;6.40;1.00;;;;;;5071401;28;20444;-59
2022/12/06 01:42:12;;;;;;;12.88;6.20;;;5.10;99.90;;;;;;5071658;28;20450;-59
2022/12/06 01:44:42;;;;;;;14.93;6.30;;;5.30;1.00;;;;;;5071603;28;20429;-60
2022/12/06 01:47:17;;;;;;;15.60;6.20;;;5.30;99.90;;;;;;5068416;28;20384;-59
2022/12/06 01:49:49;;;;;;;12.27;5.30;;;5.30;99.90;;;;;;5053870;28;20384;-60
2022/12/06 01:52:16;;;;;;;12.85;5.80;;;5.30;99.90;;;;;;5071984;28;20380;-60
2022/12/06 01:54:41;;;;;;;10.75;5.15;;;5.20;1.00;;;;;;5071541;28;20463;-60
2022/12/06 01:57:10;;;;;;;11.18;5.30;;;5.20;99.90;;;;;;5068328;28;20470;-60
2022/12/06 01:59:36;;;;;;;10.75;5.22;;;5.20;99.90;;;;;;5071375;28;20388;-60
2022/12/06 02:02:02;;;;;;;10.53;5.60;;;5.20;99.90;;;;;;5071094;28;20450;-61
2022/12/06 02:04:30;;;;;;;10.47;5.50;;;5.20;99.90;;;;;;5070593;28;20445;-60
2022/12/06 02:06:58;;;;;;;14.63;6.10;;;5.30;99.90;;;;;;5070643;28;20427;-60
2022/12/06 02:09:27;;;;;;;13.70;5.32;;;5.30;99.90;;;;;;5071979;28;20372;-60
2022/12/06 02:11:52;;;;;;;13.20;5.97;;;6.60;1.00;;;;;;5070536;28;20429;-60
2022/12/06 02:14:23;;;;;;;11.55;5.75;;;5.60;99.90;;;;;;5070948;28;20911;-61
2022/12/06 02:17:33;;;;;;;12.52;6.03;;;6.30;1.00;;;;;;5067914;28;20424;-61
2022/12/06 02:20:11;;;;;;;11.20;5.57;;;5.20;1.00;;;;;;5014728;28;20391;-60
2022/12/06 02:23:05;;;;;;;12.82;5.88;;;5.30;1.00;;;;;;5069405;28;20434;-62
2022/12/06 02:25:45;;;;;;;10.80;5.60;;;5.40;1.00;;;;;;5068754;28;20438;-60
2022/12/06 02:28:19;;;;;;;15.23;6.38;;;5.50;1.00;;;;;;5068266;28;20374;-60
2022/12/06 02:31:10;;;;;;;13.03;6.43;;;5.40;1.00;;;;;;5070611;28;20379;-62
2022/12/06 02:33:56;;;;;;;13.50;6.10;;;5.50;99.90;;;;;;5069167;28;20395;-60
2022/12/06 02:36:44;;;;;;;12.20;5.90;;;6.60;83.20;;;;;;5070035;28;20876;-60
2022/12/06 02:39:47;;;;;;;12.30;5.57;;;5.50;1.00;;;;;;5069056;28;20383;-60
2022/12/06 02:42:30;;;;;;;15.25;6.43;;;5.40;43.40;;;;;;5050643;28;20414;-60
2022/12/06 02:45:01;;;;;;;13.48;6.90;;;5.50;99.90;;;;;;5068623;28;20383;-60
2022/12/06 02:47:32;;;;;;;11.05;6.10;;;5.60;99.90;;;;;;5070858;28;20391;-60
2022/12/06 02:50:00;;;;;;;12.57;5.63;;;5.60;1.00;;;;;;5069760;28;20415;-59
2022/12/06 02:52:26;;;;;;;10.90;5.63;;;5.60;99.90;;;;;;5070381;28;20432;-59
2022/12/06 02:54:56;;;;;;;12.10;5.90;;;5.50;99.90;;;;;;5069331;28;20379;-60
2022/12/06 02:57:46;;;;;;;12.65;5.60;;;5.40;99.90;;;;;;5070294;28;20391;-60
2022/12/06 03:00:28;;;;;;;12.10;6.10;;;5.40;1.00;;;;;;5067617;28;20383;-60
2022/12/06 03:03:11;;;;;;;12.23;6.00;;;5.20;99.90;;;;;;5066974;28;20889;-60
2022/12/06 03:05:51;;;;;;;11.63;6.07;;;5.30;99.90;;;;;;5068878;28;20391;-60
2022/12/06 03:08:31;;;;;;;14.02;6.25;;;5.30;99.90;;;;;;5069467;28;20380;-61
2022/12/06 03:11:01;;;;;;;11.02;6.00;;;5.30;1.00;;;;;;5068331;28;20376;-60
2022/12/06 03:13:36;;;;;;;11.05;5.50;;;5.30;99.90;;;;;;5069936;28;20398;-60
2022/12/06 03:16:25;;;;;;;11.80;5.45;;;5.30;99.90;;;;;;5068995;28;20388;-59
2022/12/06 03:18:53;;;;;;;10.73;5.20;;;5.30;1.00;;;;;;5067433;28;20393;-60
2022/12/06 03:21:27;;;;;;;10.88;5.07;;;5.30;1.00;;;;;;5070641;28;20566;-59
2022/12/06 03:23:54;;;;;;;12.40;6.00;;;5.30;1.00;;;;;;5067309;28;20749;-60
2022/12/06 03:26:26;;;;;;;10.95;5.25;;;5.30;1.00;;;;;;5070087;28;20470;-60
2022/12/06 03:28:56;;;;;;;11.63;6.22;;;4.30;1.00;;;;;;5067531;28;20433;-60
2022/12/06 03:31:23;;;;;;;12.02;5.93;;;5.40;1.00;;;;;;5069410;28;20694;-60
2022/12/06 03:33:54;;;;;;;12.27;6.05;;;5.40;1.00;;;;;;5067016;28;20414;-60
2022/12/06 03:36:21;;;;;;;10.70;5.30;;;5.40;1.00;;;;;;5069712;28;20415;-61
2022/12/06 03:38:57;;;;;;;11.98;5.80;;;5.40;1.00;;;;;;5069478;28;20395;-64
2022/12/06 03:41:27;;;;;;;11.38;5.50;;;5.50;1.00;;;;;;5069990;28;20379;-60
2022/12/06 03:43:53;;;;;;;13.25;6.32;;;6.70;1.00;;;;;;5066940;28;20441;-59
2022/12/06 03:46:33;;;;;;;13.82;5.82;;;5.50;1.00;;;;;;5069543;28;20391;-60
2022/12/06 03:49:18;;;;;;;11.60;5.90;;;5.60;1.00;;;;;;5067962;28;20457;-60
2022/12/06 03:51:44;;;;;;;12.73;6.03;;;7.20;99.90;;;;;;5068865;28;20387;-61
2022/12/06 03:54:10;;;;;;;13.83;5.80;;;5.90;99.90;;;;;;5069013;28;20391;-60
2022/12/06 03:56:37;;;;;;;12.03;6.17;;;5.70;99.90;;;;;;5069517;28;20433;-61
2022/12/06 03:59:10;;;;;;;12.20;5.93;;;5.60;86.00;;;;;;5068675;28;20434;-62
2022/12/06 04:01:36;;;;;;;13.20;6.78;;;6.40;99.90;;;;;;5069476;28;20853;-60
2022/12/06 04:04:03;;;;;;;10.55;5.63;;;5.90;99.90;;;;;;5069023;28;20418;-60
2022/12/06 04:06:28;;;;;;;13.38;6.30;;;5.50;1.00;;;;;;5069487;28;20384;-60
2022/12/06 04:09:51;;;;;;;13.33;6.27;;;5.50;99.90;;;;;;5068517;28;20425;-60
2022/12/06 04:11:40;;;;;;;14.40;6.30;;;5.50;99.90;;;;;;5068196;28;20481;-60
2022/12/06 04:14:06;;;;;;;12.13;6.07;;;5.30;1.00;;;;;;5068246;28;20577;-60
2022/12/06 04:19:15;;;;;;;11.15;5.70;;;5.30;99.90;;;;;;5067627;28;20397;-60
2022/12/06 04:24:25;;;;;;;12.07;5.78;;;6.60;99.90;;;;;;5068656;28;20718;-60
2022/12/06 04:28:40;;;;;;;13.07;6.40;;;5.40;99.90;;;;;;5068306;28;20384;-60
2022/12/06 04:40:32;;;;;;;12.77;6.15;;;5.50;99.90;;;;;;5071268;28;20367;-60
2022/12/06 04:45:42;;;;;;;11.52;5.97;;;5.50;99.90;;;;;;5072119;28;20755;-60
2022/12/06 04:48:10;;;;;;;11.43;5.35;;;5.40;2.10;;;;;;5072577;28;20372;-60
2022/12/06 04:50:35;;;;;;;12.35;5.95;;;5.40;99.90;;;;;;5055127;28;20793;-60
2022/12/06 04:53:01;;;;;;;11.10;5.43;;;5.30;99.90;;;;;;5072305;28;20474;-60
2022/12/06 04:55:27;;;;;;;13.40;6.47;;;5.20;1.00;;;;;;5054845;28;20459;-60
2022/12/06 04:57:52;;;;;;;11.27;5.68;;;5.30;1.00;;;;;;5072237;28;20425;-60
2022/12/06 05:00:18;;;;;;;12.37;5.70;;;6.90;1.00;;;;;;5073050;28;20375;-60
2022/12/06 05:02:44;;;;;;;11.40;5.50;;;5.40;1.00;;;;;;5072390;28;20494;-60
2022/12/06 05:05:09;;;;;;;13.48;5.88;;;6.80;99.90;;;;;;5071795;28;20413;-60
2022/12/06 05:07:35;;;;;;;16.40;6.20;;;5.50;99.90;;;;;;5072689;28;20884;-60
2022/12/06 05:10:00;;;;;;;11.20;5.95;;;5.40;99.90;;;;;;5071584;28;20390;-60
2022/12/06 05:12:26;;;;;;;11.93;5.70;;;5.40;1.00;;;;;;5072085;28;20448;-60
2022/12/06 05:14:51;;;;;;;11.02;5.82;;;5.40;1.00;;;;;;5071805;28;20398;-60
2022/12/06 05:17:17;;;;;;;12.70;5.70;;;5.40;1.00;;;;;;5072388;28;20461;-60
2022/12/06 05:19:42;;;;;;;11.50;5.87;;;6.90;1.00;;;;;;5073175;28;20375;-60
2022/12/06 05:22:08;;;;;;;11.77;6.17;;;6.30;99.90;;;;;;5071309;28;20383;-60
2022/12/06 05:24:33;;;;;;;10.67;5.53;;;5.40;99.90;;;;;;5072514;28;20855;-61
2022/12/06 05:26:59;;;;;;;10.80;5.60;;;5.30;99.90;;;;;;5071757;28;20386;-60
2022/12/06 05:29:25;;;;;;;13.13;5.67;;;5.40;1.00;;;;;;5072410;28;20364;-60
2022/12/06 05:31:50;;;;;;;13.98;6.32;;;5.40;99.90;;;;;;5072157;28;20859;-60
2022/12/06 05:34:16;;;;;;;12.13;6.13;;;5.40;1.00;;;;;;5071907;28;20383;-59
2022/12/06 05:36:44;;;;;;;12.75;6.30;;;5.40;99.90;;;;;;5072097;28;20928;-60
2022/12/06 05:39:09;;;;;;;10.90;6.03;;;5.40;99.90;;;;;;5068473;28;20384;-60
2022/12/06 05:41:35;;;;;;;14.27;6.30;;;5.40;1.00;;;;;;5072267;28;20376;-60
2022/12/06 05:44:00;;;;;;;12.52;5.88;;;5.40;1.00;;;;;;5071449;28;20491;-60
2022/12/06 05:46:26;;;;;;;14.37;6.07;;;5.90;1.00;;;;;;5071955;28;20449;-60
2022/12/06 05:48:52;;;;;;;14.00;6.65;;;7.40;1.00;;;;;;5071743;28;20384;-60
2022/12/06 05:51:17;;;;;;;12.43;6.10;;;6.40;99.90;;;;;;5072282;28;20379;-60
2022/12/06 05:53:43;;;;;;;11.90;5.45;;;5.60;45.60;;;;;;5071603;28;20898;-60
2022/12/06 05:56:11;;;;;;;15.03;6.40;;;5.60;99.90;;;;;;5069719;28;20369;-60
2022/12/06 05:58:37;;;;;;;13.50;6.30;;;5.60;1.00;;;;;;5067128;28;20380;-60
2022/12/06 06:01:05;;;;;;;12.20;5.28;;;5.70;1.00;;;;;;5053375;28;20875;-60
2022/12/06 06:03:30;;;;;;;12.98;6.55;;;5.60;1.00;;;;;;5067693;28;20425;-60
2022/12/06 06:05:58;;;;;;;13.50;6.07;;;5.60;99.90;;;;;;5071429;28;20380;-60
2022/12/06 06:08:24;;;;;;;10.88;5.50;;;5.70;99.90;;;;;;5071827;28;20382;-60
2022/12/06 06:10:50;;;;;;;17.20;6.10;;;5.60;1.00;;;;;;5071989;28;20395;-65
2022/12/06 06:13:15;;;;;;;12.65;6.25;;;5.50;1.00;;;;;;5071421;28;20392;-61
2022/12/06 06:15:41;;;;;;;12.40;6.57;;;5.50;1.00;;;;;;5071937;28;20805;-60
2022/12/06 06:18:07;;;;;;;11.57;5.75;;;5.50;1.00;;;;;;5069513;28;20384;-60
2022/12/06 06:20:32;;;;;;;12.70;6.10;;;5.60;1.00;;;;;;5071729;28;20380;-60
2022/12/06 06:22:58;;;;;;;11.97;5.77;;;5.70;1.00;;;;;;5069700;28;20411;-60
2022/12/06 06:25:24;;;;;;;11.00;5.45;;;5.60;99.90;;;;;;5070182;28;20714;-60
2022/12/06 06:27:49;;;;;;;11.60;5.63;;;5.70;99.90;;;;;;5048229;28;20409;-62
2022/12/06 06:30:15;;;;;;;12.90;5.53;;;6.90;1.00;;;;;;5069053;28;20403;-60
2022/12/06 06:32:41;;;;;;;11.30;5.77;;;5.70;1.00;;;;;;5070746;28;20406;-60
2022/12/06 06:35:07;;;;;;;10.87;5.50;;;5.80;1.00;;;;;;5069683;28;20503;-60
2022/12/06 06:37:33;;;;;;;10.90;5.70;;;5.70;1.00;;;;;;5071108;28;20463;-61
2022/12/06 06:39:59;;;;;;;11.77;6.38;;;6.70;7.50;;;;;;5068667;28;20865;-61
2022/12/06 06:42:25;;;;;;;13.30;4.95;;;5.70;99.90;;;;;;5070448;28;20816;-62
2022/12/06 06:44:53;;;;;;;12.75;6.32;;;5.80;99.90;;;;;;5070380;28;20372;-61
2022/12/06 06:47:19;;;;;;;13.25;6.20;;;5.90;8.70;;;;;;5069109;28;20923;-61
2022/12/06 06:49:45;;;;;;;11.10;5.35;;;5.80;1.00;;;;;;5071273;28;20372;-61
2022/12/06 06:52:10;;;;;;;12.32;5.68;;;5.80;1.00;;;;;;5069676;28;20376;-61
2022/12/06 06:54:36;;;;;;;11.80;5.80;;;5.80;99.90;;;;;;5071593;28;20825;-61
2022/12/06 06:57:02;;;;;;;11.57;5.50;;;5.80;1.00;;;;;;5069500;28;20433;-61
2022/12/06 06:59:28;;;;;;;13.73;5.90;;;5.80;65.50;;;;;;5070080;28;20400;-60
2022/12/06 07:01:54;;;;;;;11.57;5.10;;;5.90;35.90;;;;;;5069803;28;20861;-60
2022/12/06 07:04:19;;;;;;;11.95;5.75;;;7.10;1.00;;;;;;5065738;28;20592;-61
2022/12/06 07:06:45;;;;;;;12.40;5.47;;;5.80;99.90;;;;;;5049288;28;20400;-60
2022/12/06 07:09:11;;;;;;;17.57;5.73;;;5.90;99.90;;;;;;5069916;28;20446;-61
2022/12/06 07:11:36;;;;;;;9.73;4.85;;;6.10;99.90;;;;;;5069341;28;20376;-61
2022/12/06 07:14:03;;;;;;;11.70;5.50;;;5.90;28.70;;;;;;5070140;28;20886;-60
2022/12/06 07:16:29;;;;;;;14.70;6.78;;;4.50;1.00;;;;;;5070314;28;20384;-61
2022/12/06 07:18:54;;;;;;;11.60;5.90;;;6.50;1.00;;;;;;5051291;28;20399;-66
2022/12/06 07:21:22;;;;;;;12.03;5.50;;;5.90;1.00;;;;;;5070237;28;20375;-60
2022/12/06 07:23:48;;;;;;;9.80;4.75;;;5.90;1.00;;;;;;5070364;28;20465;-62
2022/12/06 07:26:19;;;;;;;10.75;5.90;;;5.90;99.90;;;;;;5069468;28;20845;-61
2022/12/06 07:28:46;;;;;;;15.65;6.63;;;5.70;99.90;;;;;;5070411;28;20425;-61
2022/12/06 07:31:19;;;;;;;19.55;7.10;;;5.80;99.90;;;;;;5069304;28;20979;-60
2022/12/06 07:33:46;;;;;;;14.05;5.97;;;6.90;99.90;;;;;;5069918;28;20400;-61
2022/12/06 07:36:13;;;;;;;11.35;5.00;;;5.80;99.90;;;;;;5069681;28;21015;-60
2022/12/06 07:38:39;;;;;;;11.88;5.70;;;7.10;1.00;;;;;;5070010;28;20379;-61
2022/12/06 07:44:59;;;;;;;11.32;5.70;;;5.70;1.00;;;;;;5069075;28;20822;-61
2022/12/06 07:46:38;;;;;;;13.55;5.40;;;5.60;1.00;;;;;;5069425;28;20390;-61
2022/12/06 07:49:04;;;;;;;10.35;4.80;;;5.60;99.90;;;;;;5051632;28;20404;-61
2022/12/06 07:51:30;;;;;;;11.75;5.00;;;5.60;99.90;;;;;;5070038;28;20416;-62
2022/12/06 07:53:56;;;;;;;12.13;5.30;;;5.90;99.90;;;;;;5069383;28;20384;-61
2022/12/06 07:56:22;;;;;;;12.10;5.82;;;5.70;1.00;;;;;;5069991;28;20383;-61
2022/12/06 07:58:48;;;;;;;11.80;6.00;;;5.90;1.00;;;;;;5070072;28;20392;-61
2022/12/06 08:01:13;;;;;;;14.20;6.30;;;5.90;1.00;;;;;;5068820;28;20407;-61
2022/12/06 08:03:39;;;;;;;16.05;6.43;;;5.90;99.90;;;;;;5068995;28;20666;-62
2022/12/06 08:06:05;;;;;;;14.40;6.80;;;5.90;99.90;;;;;;5069559;28;20422;-62
2022/12/06 08:08:31;;;;;;;15.52;7.30;;;6.00;1.00;;;;;;5069728;28;20768;-61
2022/12/06 08:11:01;;;;;;;24.80;9.82;;;6.00;1.00;;;;;;5068952;28;20471;-61
2022/12/06 08:13:28;;;;;;;13.23;6.20;;;6.00;1.00;;;;;;5069604;28;20384;-62
2022/12/06 08:15:53;;;;;;;16.55;7.35;;;6.00;1.00;;;;;;5068972;28;20383;-61
2022/12/06 08:18:19;;;;;;;16.67;7.40;;;7.20;1.00;;;;;;5070319;28;20368;-60
2022/12/06 08:20:44;;;;;;;13.70;6.40;;;6.20;1.00;;;;;;5070102;28;20770;-60
2022/12/06 08:23:10;;;;;;;16.60;7.33;;;6.00;1.00;;;;;;5068406;28;21287;-60
2022/12/06 08:25:36;;;;;;;14.98;6.18;;;5.90;1.00;;;;;;5069676;28;20426;-61
2022/12/06 08:28:02;;;;;;;14.33;6.50;;;7.10;24.40;;;;;;5069080;28;20464;-60
2022/12/06 08:30:27;;;;;;;12.90;6.88;;;5.90;99.90;;;;;;5069733;28;20375;-60
2022/12/06 08:32:53;;;;;;;13.20;7.03;;;7.50;1.00;;;;;;5068952;28;20380;-63
2022/12/06 08:35:19;;;;;;;16.20;7.00;;;5.90;1.00;;;;;;5069342;28;20440;-60
2022/12/06 08:37:44;;;;;;;15.23;7.00;;;5.90;99.90;;;;;;5069462;28;20880;-60
2022/12/06 08:40:10;;;;;;;21.38;8.80;;;5.90;99.90;;;;;;5069195;28;20375;-60
2022/12/06 08:42:36;;;;;;;25.23;9.37;;;5.90;99.90;;;;;;5069520;28;20891;-60
2022/12/06 08:45:02;;;;;;;19.60;7.32;;;7.00;99.90;;;;;;5068921;28;20380;-60
2022/12/06 08:47:27;;;;;;;18.60;7.57;;;5.80;1.00;;;;;;5069329;28;20865;-60
2022/12/06 08:49:53;;;;;;;17.50;8.77;;;5.70;99.90;;;;;;5068726;28;20422;-64
2022/12/06 08:52:19;;;;;;;20.90;9.07;;;6.10;99.90;;;;;;5068867;28;20463;-60
2022/12/06 08:54:44;;;;;;;19.60;8.60;;;5.80;1.00;;;;;;5069636;28;20390;-60
2022/12/06 08:57:10;;;;;;;18.33;8.37;;;5.70;99.90;;;;;;5068453;28;20412;-60
2022/12/06 08:59:36;;;;;;;20.97;9.17;;;5.70;1.00;;;;;;5068976;28;20384;-60
2022/12/06 09:02:01;;;;;;;18.63;8.50;;;7.00;1.00;;;;;;5068299;28;20700;-60
2022/12/06 09:04:27;;;;;;;19.75;8.95;;;6.60;71.90;;;;;;5068857;28;20434;-60
2022/12/06 09:06:53;;;;;;;16.27;8.25;;;6.90;99.90;;;;;;5068409;28;20434;-64
2022/12/06 09:09:19;;;;;;;21.13;8.47;;;5.60;99.90;;;;;;5069038;28;20376;-60
2022/12/06 09:11:45;;;;;;;21.02;9.50;;;5.70;1.00;;;;;;5068948;28;20796;-60
2022/12/06 09:14:16;;;;;;;22.05;9.57;;;6.20;1.00;;;;;;5068446;28;20441;-60
2022/12/06 09:16:43;;;;;;;21.98;8.73;;;5.60;1.00;;;;;;5072848;28;20388;-60
2022/12/06 09:19:10;;;;;;;23.83;9.95;;;5.60;47.90;;;;;;5053953;28;20437;-60
2022/12/06 09:21:38;;;;;;;23.10;9.23;;;6.20;91.00;;;;;;5072451;28;20372;-60
2022/12/06 09:24:05;;;;;;;21.27;9.52;;;5.70;99.90;;;;;;5072116;28;20416;-60
2022/12/06 09:26:31;;;;;;;25.88;11.65;;;5.70;1.00;;;;;;5072632;28;20926;-60
2022/12/06 09:28:57;;;;;;;21.88;9.77;;;5.80;1.00;;;;;;5072076;28;20799;-64
2022/12/06 09:31:24;;;;;;;25.00;10.93;;;5.70;99.90;;;;;;5072880;28;20368;-60
2022/12/06 09:33:50;;;;;;;27.77;11.57;;;5.60;1.00;;;;;;5071971;28;20388;-64
2022/12/06 09:36:27;;;;;;;25.48;11.40;;;7.50;1.00;;;;;;5072045;28;20482;-60
2022/12/06 09:39:06;;;;;;;34.03;13.18;;;5.80;1.00;;;;;;5072146;28;20792;-62
2022/12/06 09:41:44;;;;;;;22.65;10.02;;;5.80;1.00;;;;;;5072353;28;20455;-60
2022/12/06 09:44:27;;;;;;;20.70;8.80;;;5.70;99.90;;;;;;5071592;28;20407;-60
2022/12/06 09:47:23;;;;;;;21.70;8.50;;;5.60;39.30;;;;;;5072310;28;20725;-60
2022/12/06 09:50:13;;;;;;;19.88;7.88;;;5.50;99.90;;;;;;5071863;28;20880;-59
2022/12/06 09:53:29;;;;;;;16.38;7.25;;;5.30;99.90;;;;;;5072067;28;20372;-59
2022/12/06 09:56:21;;;;;;;16.13;7.17;;;5.10;1.00;;;;;;5026645;28;20384;-63
2022/12/06 09:59:02;;;;;;;21.27;8.38;;;5.20;1.00;;;;;;5068236;28;20475;-60
2022/12/06 10:01:37;;;;;;;15.75;7.32;;;5.20;1.00;;;;;;5071476;28;20384;-59
2022/12/06 10:04:21;;;;;;;17.70;7.20;;;5.30;99.90;;;;;;5071024;28;20428;-59
2022/12/06 10:06:58;;;;;;;15.60;7.60;;;5.10;1.00;;;;;;5071980;28;20437;-59
2022/12/06 10:10:07;;;;;;;18.00;7.80;;;5.00;1.00;;;;;;5072101;28;20383;-59
2022/12/06 10:12:50;;;;;;;15.82;6.65;;;4.40;1.00;;;;;;5071618;28;20868;-59
2022/12/06 10:15:42;;;;;;;13.93;6.20;;;5.10;1.00;;;;;;5070840;28;20374;-60
2022/12/06 10:18:20;;;;;;;12.73;5.40;;;5.00;1.00;;;;;;5070983;28;20849;-59
2022/12/06 10:20:49;;;;;;;12.20;5.38;;;5.80;1.00;;;;;;5071954;28;20410;-59
2022/12/06 10:23:42;;;;;;;14.73;5.68;;;5.80;1.00;;;;;;5070432;28;20411;-59
2022/12/06 10:26:15;;;;;;;13.90;5.65;;;4.90;1.00;;;;;;5070198;28;20868;-59
2022/12/06 10:28:45;;;;;;;17.27;7.57;;;5.00;1.00;;;;;;5071192;28;20383;-59
2022/12/06 10:31:22;;;;;;;18.70;6.72;;;5.20;1.00;;;;;;5070435;28;20437;-59
2022/12/06 10:34:08;;;;;;;16.85;6.80;;;5.30;1.00;;;;;;5071068;28;20931;-59
2022/12/06 10:36:41;;;;;;;20.85;7.93;;;5.40;1.00;;;;;;5071583;28;20408;-59
2022/12/06 10:39:48;;;;;;;18.08;7.70;;;6.80;1.00;;;;;;5070151;28;20963;-59
2022/12/06 10:42:26;;;;;;;17.27;6.97;;;5.50;1.00;;;;;;5070265;28;20420;-59
2022/12/06 10:44:58;;;;;;;16.17;6.90;;;6.50;99.90;;;;;;5071164;28;20392;-59
2022/12/06 10:47:40;;;;;;;16.38;6.47;;;6.30;1.00;;;;;;5070784;28;20387;-60
2022/12/06 10:50:19;;;;;;;15.75;6.40;;;5.50;1.00;;;;;;5070412;28;20725;-61
2022/12/06 10:53:02;;;;;;;17.10;7.10;;;5.40;1.00;;;;;;5070731;28;20475;-59
2022/12/06 10:55:40;;;;;;;15.27;6.47;;;6.60;1.00;;;;;;5071118;28;20383;-60
2022/12/06 10:58:08;;;;;;;14.83;6.33;;;6.70;1.00;;;;;;5070136;28;20416;-59
2022/12/06 11:00:40;;;;;;;16.00;6.53;;;5.70;1.00;;;;;;5071091;28;20400;-59
2022/12/06 11:03:52;;;;;;;18.75;6.40;;;6.80;1.00;;;;;;5069733;28;20407;-59
2022/12/06 11:06:36;;;;;;;24.85;7.63;;;5.40;1.00;;;;;;5025206;28;20441;-59
2022/12/06 11:09:24;;;;;;;27.92;9.50;;;5.30;1.00;;;;;;5070162;28;20392;-60
2022/12/06 11:11:51;;;;;;;23.38;7.20;;;5.30;1.00;;;;;;5070626;28;20463;-60
2022/12/06 11:14:41;;;;;;;12.93;5.60;;;6.50;1.00;;;;;;5069522;28;20395;-59
2022/12/06 11:17:18;;;;;;;15.07;6.75;;;5.40;1.00;;;;;;5070111;28;20403;-60
2022/12/06 11:19:52;;;;;;;11.73;4.90;;;5.30;1.00;;;;;;5070324;28;20382;-59
2022/12/06 11:23:05;;;;;;;14.00;5.25;;;5.00;1.00;;;;;;5069745;28;20376;-60
2022/12/06 11:26:05;;;;;;;15.00;5.38;;;5.00;1.00;;;;;;4972425;28;20888;-60
2022/12/06 11:28:34;;;;;;;32.92;13.07;;;5.00;1.00;;;;;;5070208;28;20459;-61
2022/12/06 11:31:02;;;;;;;38.50;15.35;;;6.20;1.00;;;;;;5069162;28;20780;-60
2022/12/06 11:33:32;;;;;;;21.10;8.73;;;5.00;1.00;;;;;;5069825;28;20391;-60
2022/12/06 11:36:04;;;;;;;12.85;5.43;;;4.80;1.00;;;;;;5069538;28;20430;-64
2022/12/06 11:38:30;;;;;;;13.60;5.85;;;4.80;1.00;;;;;;5070055;28;20383;-60
2022/12/06 11:40:57;;;;;;;12.98;5.97;;;6.10;1.00;;;;;;5069281;28;20398;-60
2022/12/06 11:43:30;;;;;;;10.23;5.00;;;5.00;1.00;;;;;;5069839;28;20871;-60
2022/12/06 11:45:57;;;;;;;10.30;4.80;;;5.80;1.00;;;;;;5069844;28;20426;-64
2022/12/06 11:48:25;;;;;;;11.63;5.60;;;5.20;1.00;;;;;;5069899;28;20411;-59
2022/12/06 11:50:52;;;;;;;10.70;5.05;;;5.30;1.00;;;;;;5070270;28;20383;-60
2022/12/06 11:53:39;;;;;;;12.10;4.70;;;5.20;1.00;;;;;;5069535;28;20467;-61
2022/12/06 11:56:19;;;;;;;10.50;4.03;;;5.30;1.00;;;;;;5069710;28;20861;-58
2022/12/06 11:59:23;;;;;;;11.40;4.70;;;6.50;1.00;;;;;;5069759;28;20483;-58
2022/12/06 12:01:51;;;;;;;8.27;3.50;;;5.10;1.00;;;;;;5069820;28;20387;-58
2022/12/06 12:04:30;;;;;;;10.20;4.30;;;4.90;1.00;;;;;;5068802;28;20485;-58
2022/12/06 12:07:08;;;;;;;13.27;5.03;;;4.90;1.00;;;;;;5069307;28;20849;-63
2022/12/06 12:09:57;;;;;;;9.00;4.20;;;4.80;1.00;;;;;;5069789;28;20380;-58
2022/12/06 12:13:42;;;;;;;9.57;4.60;;;5.00;1.00;;;;;;5069924;28;20376;-58
2022/12/06 12:15:17;;;;;;;12.25;4.97;;;4.70;1.00;;;;;;5068198;28;20392;-58
2022/12/06 12:17:50;;;;;;;8.60;4.00;;;4.80;1.00;;;;;;5069612;28;20908;-58
2022/12/06 12:20:32;;;;;;;10.25;4.22;;;4.80;1.00;;;;;;5068477;28;20481;-58
2022/12/06 12:23:00;;;;;;;11.25;4.28;;;4.80;1.00;;;;;;5069366;28;20407;-62
2022/12/06 12:25:32;;;;;;;9.10;4.07;;;4.80;1.00;;;;;;5069673;28;20384;-59
2022/12/06 12:28:00;;;;;;;8.55;3.53;;;4.70;1.00;;;;;;5069465;28;20454;-63
2022/12/06 12:30:31;;;;;;;13.10;4.40;;;5.10;1.00;;;;;;5069431;28;20940;-58
2022/12/06 12:33:13;;;;;;;9.85;4.07;;;4.60;1.00;;;;;;5068907;28;20482;-61
2022/12/06 12:35:44;;;;;;;8.57;3.65;;;4.70;99.90;;;;;;5069347;28;20412;-61
2022/12/06 12:38:10;;;;;;;7.93;3.50;;;4.80;99.90;;;;;;5068673;28;20576;-58
2022/12/06 12:40:48;;;;;;;7.90;3.75;;;6.70;99.90;;;;;;5069457;28;20924;-59
2022/12/06 12:43:23;;;;;;;7.75;3.00;;;4.70;99.90;;;;;;5068638;28;20416;-58
2022/12/06 12:46:18;;;;;;;10.45;3.30;;;4.70;99.90;;;;;;5069525;28;20419;-60
2022/12/06 12:48:46;;;;;;;8.60;3.35;;;4.70;99.90;;;;;;5070138;28;20384;-60
2022/12/06 12:51:27;;;;;;;8.85;3.90;;;5.70;99.90;;;;;;5072419;28;20777;-58
2022/12/06 12:54:00;;;;;;;9.95;3.60;;;4.70;99.90;;;;;;5054944;28;20438;-59
2022/12/06 12:56:26;;;;;;;9.60;4.00;;;4.70;99.90;;;;;;5073107;28;20869;-59
2022/12/06 12:58:54;;;;;;;10.50;4.33;;;4.70;99.90;;;;;;5073136;28;20436;-59
2022/12/06 13:02:03;;;;;;;9.17;4.60;;;4.80;99.90;;;;;;5072420;28;20419;-60
2022/12/06 13:04:47;;;;;;;9.77;4.45;;;4.90;99.90;;;;;;5035111;28;20463;-61
2022/12/06 13:07:24;;;;;;;10.10;3.85;;;4.80;99.90;;;;;;5072406;28;20409;-59
2022/12/06 13:09:56;;;;;;;8.80;3.60;;;4.70;99.90;;;;;;5072938;28;20371;-58
2022/12/06 13:12:28;;;;;;;11.00;3.85;;;5.30;99.90;;;;;;5072424;28;20386;-59
2022/12/06 13:15:19;;;;;;;10.25;3.80;;;4.80;79.50;;;;;;5072734;28;20376;-58
2022/12/06 13:17:49;;;;;;;10.57;4.30;;;4.90;73.50;;;;;;5071874;28;20395;-58
2022/12/06 13:20:28;;;;;;;12.73;4.70;;;6.60;1.00;;;;;;5072391;28;20391;-59
2022/12/06 13:23:26;;;;;;;9.60;4.38;;;5.00;1.00;;;;;;5072266;28;20404;-60
2022/12/06 13:25:57;;;;;;;10.00;4.17;;;6.60;99.90;;;;;;5056677;28;20537;-58
2022/12/06 13:28:30;;;;;;;10.00;4.28;;;5.00;1.00;;;;;;5072392;28;20380;-59
2022/12/06 13:31:04;;;;;;;8.97;3.97;;;4.90;99.70;;;;;;5072510;28;20732;-58
2022/12/06 13:33:33;;;;;;;8.60;3.85;;;4.90;21.70;;;;;;5072448;28;20510;-60
2022/12/06 13:36:09;;;;;;;9.07;3.60;;;5.80;99.90;;;;;;5071521;28;20510;-59
2022/12/06 13:38:38;;;;;;;11.75;4.28;;;4.70;99.90;;;;;;5071868;28;20382;-58